createdAt,value
2018-09-04T00:01:55.118Z,99.90
2018-09-04T00:04:22.110Z,99.90
2018-09-04T00:06:49.510Z,99.90
2018-09-04T00:09:16.503Z,99.90
2018-09-04T00:11:43.454Z,99.90
2018-09-04T00:14:10.706Z,99.90
2018-09-04T00:16:37.692Z,99.90
2018-09-04T00:19:04.693Z,99.90
2018-09-04T00:21:31.942Z,99.90
2018-09-04T00:23:59.062Z,99.90
2018-09-04T00:26:26.110Z,99.90
2018-09-04T00:28:53.441Z,99.90
2018-09-04T00:31:20.442Z,99.90
2018-09-04T00:33:47.489Z,99.90
2018-09-04T00:36:14.609Z,99.90
2018-09-04T00:38:41.695Z,99.90
2018-09-04T00:41:08.699Z,99.90
2018-09-04T00:43:36.056Z,99.90
2018-09-04T00:46:03.077Z,99.90
2018-09-04T00:48:30.067Z,99.90
2018-09-04T00:50:57.297Z,99.90
2018-09-04T00:53:24.285Z,99.90
2018-09-04T00:55:51.285Z,99.90
2018-09-04T00:58:18.713Z,99.90
2018-09-04T01:00:45.689Z,99.90
2018-09-04T01:03:12.622Z,99.90
2018-09-04T01:05:39.663Z,99.90
2018-09-04T01:08:06.671Z,99.90
2018-09-04T01:10:33.671Z,99.90
2018-09-04T01:13:01.005Z,99.90
2018-09-04T01:15:28.019Z,99.90
2018-09-04T01:17:54.992Z,99.90
2018-09-04T01:20:22.413Z,99.50
2018-09-04T01:22:49.374Z,99.50
2018-09-04T01:25:16.422Z,99.70
2018-09-04T01:27:43.784Z,99.40
2018-09-04T01:30:10.818Z,98.50
2018-09-04T01:32:37.829Z,99.00
2018-09-04T01:35:04.859Z,98.80
2018-09-04T01:37:31.829Z,99.00
2018-09-04T01:39:58.775Z,99.50
2018-09-04T01:42:26.063Z,99.10
2018-09-04T01:44:53.036Z,99.30
2018-09-04T01:47:20.402Z,99.70
2018-09-04T01:49:50.935Z,99.20
2018-09-04T01:52:17.905Z,99.60
2018-09-04T01:54:44.942Z,99.30
2018-09-04T01:57:12.116Z,99.60
2018-09-04T01:59:39.056Z,99.90
2018-09-04T02:02:06.023Z,99.90
2018-09-04T02:04:33.041Z,99.90
2018-09-04T02:07:00.770Z,99.90
2018-09-04T02:09:27.805Z,99.90
2018-09-04T02:11:55.471Z,99.90
2018-09-04T02:14:22.441Z,99.90
2018-09-04T02:16:49.610Z,99.90
2018-09-04T02:19:16.685Z,99.90
2018-09-04T02:21:43.647Z,99.90
2018-09-04T02:24:10.615Z,99.90
2018-09-04T02:26:37.954Z,99.90
2018-09-04T02:29:04.971Z,99.90
2018-09-04T02:31:32.022Z,99.90
2018-09-04T02:33:59.265Z,99.90
2018-09-04T02:36:26.558Z,99.90
2018-09-04T02:38:53.579Z,99.90
2018-09-04T02:41:20.584Z,99.90
2018-09-04T02:43:47.516Z,99.90
2018-09-04T02:46:14.496Z,99.90
2018-09-04T02:48:41.972Z,99.90
2018-09-04T02:51:08.977Z,99.90
2018-09-04T02:53:37.288Z,99.90
2018-09-04T02:56:04.602Z,99.90
2018-09-04T02:58:31.556Z,99.90
2018-09-04T03:00:58.572Z,99.90
2018-09-04T03:03:25.555Z,99.90
2018-09-04T03:05:52.503Z,99.90
2018-09-04T03:08:19.479Z,99.90
2018-09-04T03:10:46.798Z,99.90
2018-09-04T03:13:13.778Z,99.90
2018-09-04T03:15:40.745Z,99.90
2018-09-04T03:18:08.002Z,99.90
2018-09-04T03:20:34.995Z,99.90
2018-09-04T03:23:01.943Z,99.90
2018-09-04T03:25:29.243Z,99.90
2018-09-04T03:27:56.259Z,99.90
2018-09-04T03:30:23.269Z,99.90
2018-09-04T03:32:50.253Z,99.90
2018-09-04T03:35:17.242Z,99.90
2018-09-04T03:37:44.176Z,99.90
2018-09-04T03:40:11.666Z,99.90
2018-09-04T03:42:38.670Z,99.90
2018-09-04T03:45:05.837Z,99.90
2018-09-04T03:47:33.120Z,99.90
2018-09-04T03:50:00.106Z,99.90
2018-09-04T03:52:27.153Z,99.90
2018-09-04T03:54:54.325Z,99.90
2018-09-04T03:57:21.312Z,99.90
2018-09-04T03:59:48.274Z,99.90
2018-09-04T04:02:15.264Z,99.90
2018-09-04T04:04:42.253Z,99.90
2018-09-04T04:07:09.307Z,99.90
2018-09-04T04:09:36.602Z,99.90
2018-09-04T04:12:03.752Z,99.90
2018-09-04T04:14:30.632Z,99.90
2018-09-04T04:16:58.208Z,99.90
2018-09-04T04:19:25.259Z,99.90
2018-09-04T04:21:52.181Z,99.90
2018-09-04T04:24:19.205Z,99.90
2018-09-04T04:26:46.214Z,99.90
2018-09-04T04:29:13.185Z,99.90
2018-09-04T04:31:40.882Z,99.90
2018-09-04T04:34:07.842Z,99.90
2018-09-04T04:36:34.818Z,99.90
2018-09-04T04:39:02.073Z,99.90
2018-09-04T04:41:29.108Z,99.90
2018-09-04T04:43:56.140Z,99.90
2018-09-04T04:46:23.381Z,99.90
2018-09-04T04:48:50.370Z,99.90
2018-09-04T04:51:17.309Z,99.90
2018-09-04T04:53:44.335Z,99.90
2018-09-04T04:56:11.406Z,99.90
2018-09-04T04:58:38.484Z,99.90
2018-09-04T05:01:06.037Z,99.90
2018-09-04T05:03:33.051Z,99.90
2018-09-04T05:06:00.036Z,99.90
2018-09-04T05:08:27.038Z,99.90
2018-09-04T05:10:54.102Z,99.90
2018-09-04T05:13:21.190Z,99.90
2018-09-04T05:15:48.475Z,99.90
2018-09-04T05:18:15.475Z,99.90
2018-09-04T05:20:42.587Z,99.90
2018-09-04T05:23:09.586Z,99.90
2018-09-04T05:25:36.635Z,99.90
2018-09-04T05:28:03.662Z,99.90
2018-09-04T05:30:30.688Z,99.90
2018-09-04T05:33:03.650Z,99.90
2018-09-04T05:35:36.432Z,99.90
2018-09-04T05:38:03.658Z,99.90
2018-09-04T05:40:30.632Z,99.60
2018-09-04T05:43:00.435Z,99.30
2018-09-04T05:45:28.743Z,98.20
2018-09-04T05:48:06.209Z,97.40
2018-09-04T05:50:33.229Z,96.30
2018-09-04T05:53:00.157Z,95.90
2018-09-04T05:55:27.414Z,95.00
2018-09-04T05:57:54.544Z,94.70
2018-09-04T06:01:29.316Z,93.40
2018-09-04T06:03:56.253Z,92.20
2018-09-04T06:06:23.197Z,90.50
2018-09-04T06:08:50.194Z,89.50
2018-09-04T06:11:17.252Z,89.10
2018-09-04T06:13:44.341Z,87.70
2018-09-04T06:16:11.590Z,86.20
2018-09-04T06:18:38.559Z,84.00
2018-09-04T06:21:05.524Z,83.10
2018-09-04T06:23:32.840Z,82.80
2018-09-04T06:25:59.857Z,80.30
2018-09-04T06:28:26.875Z,80.50
2018-09-04T06:30:54.181Z,79.40
2018-09-04T06:33:21.153Z,77.90
2018-09-04T06:48:03.796Z,76.00
2018-09-04T06:52:58.154Z,61.50
2018-09-04T06:57:52.295Z,57.40
2018-09-04T16:58:46.194Z,27.60
2018-09-04T17:01:13.220Z,43.20
2018-09-04T17:03:40.194Z,43.40
2018-09-04T17:06:07.223Z,43.90
2018-09-04T17:08:34.503Z,44.20
2018-09-04T17:11:01.505Z,44.00
2018-09-04T17:13:28.491Z,44.00
2018-09-04T17:15:55.840Z,44.20
2018-09-04T17:18:22.873Z,43.70
2018-09-04T17:25:44.142Z,44.80
2018-09-04T17:28:11.153Z,45.90
2018-09-04T17:30:38.495Z,45.80
2018-09-04T17:33:05.481Z,45.30
2018-09-04T17:35:32.496Z,45.20
2018-09-04T17:37:59.582Z,46.00
2018-09-04T17:40:26.662Z,45.80
2018-09-04T17:42:53.716Z,46.00
2018-09-04T17:52:42.846Z,46.30
2018-09-04T17:55:09.882Z,49.40
2018-09-04T17:57:37.455Z,49.30
2018-09-04T18:00:05.036Z,49.80
2018-09-04T18:02:31.973Z,50.90
2018-09-04T18:04:58.943Z,51.90
2018-09-04T18:41:48.907Z,52.70
2018-09-04T18:44:16.270Z,62.50
2018-09-04T18:46:43.533Z,63.30
2018-09-04T18:49:10.515Z,64.30
2018-09-04T18:51:37.858Z,65.20
2018-09-04T18:54:04.972Z,65.60
2018-09-04T18:58:59.101Z,66.20
2018-09-04T19:06:20.590Z,67.70
2018-09-04T19:08:47.572Z,69.50
2018-09-04T19:11:14.641Z,70.50
2018-09-04T19:13:42.084Z,71.20
2018-09-04T19:16:09.052Z,71.70
2018-09-04T19:18:36.037Z,73.00
2018-09-04T19:21:03.389Z,73.30
2018-09-04T19:23:30.447Z,74.30
2018-09-04T19:25:57.419Z,75.10
2018-09-04T19:28:24.474Z,76.30
2018-09-04T19:30:51.563Z,77.20
2018-09-04T19:33:18.630Z,78.90
2018-09-04T19:35:45.970Z,79.50
2018-09-04T19:38:13.049Z,80.70
2018-09-04T19:40:40.050Z,81.30
2018-09-04T19:43:07.448Z,81.90
2018-09-04T19:45:34.439Z,82.40
2018-09-04T19:48:01.625Z,83.50
2018-09-04T19:50:28.753Z,84.70
2018-09-04T19:52:55.743Z,85.00
2018-09-04T19:55:22.748Z,86.00
2018-09-04T19:57:50.080Z,85.90
2018-09-04T20:00:17.074Z,86.90
2018-09-04T20:02:44.090Z,87.50
2018-09-04T20:05:11.490Z,87.80
2018-09-04T20:07:38.512Z,88.20
2018-09-04T20:10:05.865Z,88.40
2018-09-04T20:12:34.046Z,88.90
2018-09-04T20:15:01.104Z,88.90
2018-09-04T20:17:28.104Z,89.20
2018-09-04T20:19:55.389Z,89.90
2018-09-04T20:22:22.321Z,90.00
2018-09-04T20:24:49.343Z,90.30
2018-09-04T20:27:16.329Z,91.00
2018-09-04T20:29:43.320Z,90.40
2018-09-04T20:32:10.423Z,91.10
2018-09-04T20:34:37.784Z,91.80
2018-09-04T20:37:04.751Z,91.80
2018-09-04T20:39:31.742Z,91.70
2018-09-04T20:42:00.145Z,92.00
2018-09-04T20:44:27.413Z,92.20
2018-09-04T20:46:54.670Z,92.70
2018-09-04T20:49:21.845Z,93.20
2018-09-04T20:51:48.874Z,93.40
2018-09-04T20:54:15.853Z,93.70
2018-09-04T20:56:52.758Z,93.80
2018-09-04T20:59:31.521Z,94.80
2018-09-04T21:02:10.525Z,95.30
2018-09-04T21:04:49.210Z,95.90
2018-09-04T21:07:21.208Z,97.10
2018-09-04T21:10:06.067Z,96.90
2018-09-04T21:12:33.463Z,97.50
2018-09-04T21:15:00.481Z,97.70
2018-09-04T21:17:27.453Z,99.20
2018-09-04T21:19:54.785Z,98.70
2018-09-04T21:22:21.743Z,99.50
2018-09-04T21:24:48.763Z,99.60
2018-09-04T21:27:16.014Z,99.90
2018-09-04T21:29:42.976Z,99.90
2018-09-04T21:32:09.934Z,99.90
2018-09-04T21:34:36.934Z,99.90
2018-09-04T21:37:04.258Z,99.90
2018-09-04T21:39:31.245Z,99.90
2018-09-04T21:41:58.656Z,99.90
2018-09-04T21:44:25.708Z,99.90
2018-09-04T21:46:52.642Z,99.90
2018-09-04T21:49:19.930Z,99.90
2018-09-04T21:51:53.632Z,99.90
2018-09-04T21:54:20.913Z,99.90
2018-09-04T21:56:47.876Z,99.90
2018-09-04T21:59:14.865Z,99.90
2018-09-04T22:01:41.920Z,99.90
2018-09-04T22:04:08.889Z,99.90
2018-09-04T22:06:35.887Z,99.90
2018-09-04T22:09:04.250Z,99.90
2018-09-04T22:11:37.346Z,99.90
2018-09-04T22:14:04.748Z,99.90
2018-09-04T22:16:32.157Z,99.90
2018-09-04T22:18:59.180Z,99.90
2018-09-04T22:21:26.228Z,99.90
2018-09-04T22:23:53.376Z,99.90
2018-09-04T22:26:20.453Z,99.90
2018-09-04T22:28:47.785Z,99.90
2018-09-04T22:31:14.745Z,99.90
2018-09-04T22:33:41.706Z,99.90
2018-09-04T22:36:08.821Z,99.90
2018-09-04T22:38:35.869Z,99.90
2018-09-04T22:41:02.903Z,99.90
2018-09-04T22:43:29.959Z,99.90
2018-09-04T22:45:56.956Z,99.90
2018-09-04T22:48:23.994Z,99.90
2018-09-04T22:50:56.909Z,99.90
2018-09-04T22:53:23.947Z,99.90
2018-09-04T22:55:50.969Z,99.90
2018-09-04T22:58:18.298Z,99.90
2018-09-04T23:00:45.298Z,99.90
2018-09-04T23:03:12.418Z,99.90
2018-09-04T23:05:39.746Z,99.90
2018-09-04T23:08:06.768Z,99.90
2018-09-04T23:10:33.789Z,99.90
2018-09-04T23:13:00.806Z,99.90
2018-09-04T23:15:27.884Z,99.90
2018-09-04T23:17:55.739Z,99.90
2018-09-04T23:20:23.221Z,99.90
2018-09-04T23:22:50.221Z,99.90
2018-09-04T23:25:17.216Z,99.90
2018-09-04T23:27:44.751Z,99.90
2018-09-04T23:30:11.887Z,99.90
2018-09-04T23:32:39.642Z,99.90
2018-09-04T23:35:06.983Z,99.90
2018-09-04T23:37:34.005Z,99.90
2018-09-04T23:40:00.968Z,99.90
2018-09-04T23:42:31.702Z,99.90
2018-09-04T23:44:58.986Z,99.90
2018-09-04T23:47:26.006Z,99.90
2018-09-04T23:49:53.354Z,99.90
2018-09-04T23:52:20.355Z,99.90
2018-09-04T23:54:47.479Z,99.90
2018-09-04T23:57:14.845Z,99.90
2018-09-04T23:59:41.837Z,99.90
